Time;durP1;ratioP1;P1;durP2;ratioP2;P2;SDS_P1;SDS_P2;PMS_P1;PMS_P2;Temp;Humidity;BMP_temperature;BMP_pressure;BME280_temperature;BME280_humidity;BME280_pressure;Samples;Min_cycle;Max_cycle;Signal;HPM_P1;HPM_P2
2022/08/20 00:01:25;;;;;;;;;5.00;3.00;;;;;20.43;55.66;101426.91;5019748;28;45279;-64
2022/08/20 00:03:51;;;;;;;;;8.00;7.00;;;;;20.43;55.75;101416.94;5019825;28;45414;-63
2022/08/20 00:06:22;;;;;;;;;2.00;2.00;;;;;20.25;56.01;101408.41;5019869;28;45314;-63
2022/08/20 00:08:48;;;;;;;;;2.00;1.00;;;;;20.33;55.91;101419.91;5019501;28;45992;-63
2022/08/20 00:11:17;;;;;;;;;2.00;2.00;;;;;20.33;55.52;101422.59;5019308;28;45632;-64
2022/08/20 00:13:45;;;;;;;;;2.67;2.67;;;;;20.32;55.80;101404.72;5019852;28;45195;-62
2022/08/20 00:16:13;;;;;;;;;3.33;2.00;;;;;20.35;55.92;101417.84;5019770;28;45498;-62
2022/08/20 00:18:40;;;;;;;;;1.67;1.33;;;;;20.35;55.92;101411.59;5019377;28;47654;-63
2022/08/20 00:21:07;;;;;;;;;10.33;10.33;;;;;19.84;55.75;101335.28;5019445;28;45189;-62
2022/08/20 00:23:36;;;;;;;;;4.00;3.00;;;;;20.26;56.08;101404.66;5034469;28;45286;-62
2022/08/20 00:26:02;;;;;;;;;2.67;1.67;;;;;20.26;55.84;101408.22;5019433;28;45462;-63
2022/08/20 00:28:27;;;;;;;;;6.00;3.33;;;;;20.25;56.29;101411.94;5038668;28;46730;-63
2022/08/20 00:30:53;;;;;;;;;3.33;3.00;;;;;20.17;56.21;101403.94;5038797;28;45245;-64
2022/08/20 00:33:21;;;;;;;;;3.33;2.00;;;;;20.15;56.35;101406.00;5039189;28;45339;-63
2022/08/20 00:35:51;;;;;;;;;3.00;3.00;;;;;18.66;56.57;101162.88;5054913;28;45269;-63
2022/08/20 00:38:17;;;;;;;;;3.33;3.00;;;;;20.06;56.83;101396.34;5038954;28;46264;-63
2022/08/20 00:40:54;;;;;;;;;2.67;1.33;;;;;20.09;56.87;101417.56;5054327;28;45198;-63
2022/08/20 00:43:44;;;;;;;;;5.00;3.33;;;;;20.01;57.01;101405.00;5038219;28;45277;-63
2022/08/20 00:46:17;;;;;;;;;2.00;2.00;;;;;20.04;56.93;101406.50;5039257;28;45333;-63
2022/08/20 00:48:46;;;;;;;;;1.33;1.33;;;;;19.50;56.65;101325.91;5038712;28;46386;-63
2022/08/20 00:51:41;;;;;;;;;3.33;3.33;;;;;20.03;56.92;101412.94;5038751;28;45272;-64
2022/08/20 00:54:26;;;;;;;;;4.00;3.00;;;;;19.98;57.36;101402.69;5038336;28;45304;-64
2022/08/20 00:56:57;;;;;;;;;4.00;4.00;;;;;20.04;57.29;101414.59;5039151;28;45294;-64
2022/08/20 00:59:26;;;;;;;;;5.00;3.00;;;;;19.94;57.10;101392.47;5038648;28;46494;-63
2022/08/20 01:01:52;;;;;;;;;4.33;3.33;;;;;19.94;57.52;101397.84;5038344;28;45507;-63
2022/08/20 01:04:18;;;;;;;;;1.67;1.67;;;;;20.04;57.17;101407.34;5038713;28;45295;-63
2022/08/20 01:06:43;;;;;;;;;2.33;2.00;;;;;19.93;57.23;101390.78;5039004;28;45311;-63
2022/08/20 01:09:10;;;;;;;;;3.67;2.33;;;;;19.95;57.36;101399.53;5038491;28;45773;-63
2022/08/20 01:11:35;;;;;;;;;4.67;4.00;;;;;19.94;57.68;101403.25;5036751;28;45314;-72
2022/08/20 01:16:51;;;;;;;;;2.67;2.67;;;;;19.96;57.69;101407.44;5037557;28;45266;-64
2022/08/20 01:19:24;;;;;;;;;3.33;2.67;;;;;19.98;57.80;101409.94;5038248;28;46677;-63
2022/08/20 01:21:51;;;;;;;;;3.00;3.00;;;;;19.86;57.71;101379.94;5038301;28;45457;-63
2022/08/20 01:24:23;;;;;;;;;2.67;2.67;;;;;19.95;57.95;101396.81;5019239;28;45408;-64
2022/08/20 01:26:49;;;;;;;;;7.00;4.00;;;;;19.95;58.22;101410.31;5018588;28;45511;-64
2022/08/20 01:29:22;;;;;;;;;5.00;5.00;;;;;19.89;58.04;101405.69;5016777;28;47305;-64
2022/08/20 01:31:47;;;;;;;;;2.00;1.67;;;;;19.86;58.22;101389.88;5018270;28;45282;-64
2022/08/20 01:34:15;;;;;;;;;3.33;3.00;;;;;19.92;58.25;101399.91;5018424;28;45466;-64
2022/08/20 01:36:48;;;;;;;;;5.67;4.00;;;;;19.89;58.42;101400.28;5018388;28;45376;-63
2022/08/20 01:39:18;;;;;;;;;2.00;2.00;;;;;19.94;58.39;101411.34;5018072;28;46489;-63
2022/08/20 01:42:11;;;;;;;;;3.33;3.33;;;;;19.93;58.19;101415.06;5018149;28;45338;-63
2022/08/20 01:44:39;;;;;;;;;3.00;3.00;;;;;19.93;58.47;101412.38;5018327;28;45317;-63
2022/08/20 01:47:16;;;;;;;;;4.00;2.33;;;;;19.88;58.49;101426.44;5019593;28;45445;-64
2022/08/20 01:49:45;;;;;;;;;3.00;2.67;;;;;19.74;58.29;101403.84;5017762;28;46700;-62
2022/08/20 01:52:21;;;;;;;;;3.00;3.00;;;;;19.85;58.79;101426.81;5018910;28;45305;-62
2022/08/20 01:54:46;;;;;;;;;3.33;3.33;;;;;19.86;58.63;101431.19;5033001;28;45250;-62
2022/08/20 01:57:17;;;;;;;;;4.00;3.00;;;;;19.85;58.67;101431.38;5018266;28;45459;-62
2022/08/20 01:59:44;;;;;;;;;5.00;3.00;;;;;19.81;58.48;101432.75;5017649;28;47775;-63
2022/08/20 02:02:11;;;;;;;;;2.33;2.33;;;;;19.78;58.46;101435.84;5017862;28;45495;-62
2022/08/20 02:04:39;;;;;;;;;6.33;3.00;;;;;19.66;58.68;101414.75;5018004;28;45394;-62
2022/08/20 02:07:06;;;;;;;;;3.00;2.00;;;;;19.62;58.79;101410.75;5018070;28;45429;-63
2022/08/20 02:09:35;;;;;;;;;3.00;2.00;;;;;19.23;58.71;101342.75;5016260;28;47342;-63
2022/08/20 02:12:04;;;;;;;;;3.67;3.33;;;;;19.74;58.66;101425.44;5017695;28;45318;-62
2022/08/20 02:14:31;;;;;;;;;4.00;3.00;;;;;19.75;58.69;101435.19;5017890;28;45361;-63
2022/08/20 02:16:59;;;;;;;;;3.67;3.67;;;;;19.70;58.46;101434.94;5016293;28;45325;-63
2022/08/20 02:19:36;;;;;;;;;7.33;2.00;;;;;19.73;58.67;101442.63;5029888;28;47012;-63
2022/08/20 02:22:23;;;;;;;;;2.33;2.33;;;;;19.68;58.59;101436.97;5037579;28;45243;-62
2022/08/20 02:24:48;;;;;;;;;4.33;3.33;;;;;19.67;58.67;101443.41;5037755;28;45457;-63
2022/08/20 02:27:14;;;;;;;;;5.00;3.33;;;;;19.70;58.67;101439.47;5037518;28;45492;-62
2022/08/20 02:29:40;;;;;;;;;3.00;3.00;;;;;19.56;58.75;101426.81;5034731;28;46468;-62
2022/08/20 02:32:07;;;;;;;;;3.33;2.00;;;;;19.69;58.50;101441.34;5017422;28;45460;-63
2022/08/20 02:34:35;;;;;;;;;2.00;2.00;;;;;19.59;58.94;101427.28;5017588;28;45250;-63
2022/08/20 02:37:02;;;;;;;;;3.67;3.00;;;;;19.58;58.95;101431.00;5017659;28;45376;-63
2022/08/20 02:39:28;;;;;;;;;3.67;3.33;;;;;19.60;59.31;101442.44;5016888;28;45328;-64
2022/08/20 02:41:53;;;;;;;;;2.00;2.00;;;;;19.53;58.96;101432.56;5017190;28;45270;-63
2022/08/20 02:44:20;;;;;;;;;6.00;3.00;;;;;19.52;59.15;101434.44;5016268;28;45456;-63
2022/08/20 02:46:47;;;;;;;;;5.67;4.00;;;;;19.50;59.33;101433.78;5025514;28;45475;-64
2022/08/20 02:49:13;;;;;;;;;4.33;4.00;;;;;19.42;59.61;101426.63;5036967;28;46738;-64
2022/08/20 02:51:38;;;;;;;;;4.00;3.00;;;;;19.24;59.79;101401.03;5037033;28;45355;-64
2022/08/20 02:54:03;;;;;;;;;2.00;2.00;;;;;19.46;59.70;101440.56;5037380;28;45478;-64
2022/08/20 02:56:29;;;;;;;;;4.00;2.00;;;;;19.44;59.68;101442.63;5037293;28;45181;-62
2022/08/20 02:58:54;;;;;;;;;4.33;2.67;;;;;19.08;59.72;101386.72;5035596;28;46417;-63
2022/08/20 03:01:19;;;;;;;;;5.00;3.67;;;;;19.37;59.91;101434.41;5036895;28;45458;-62
2022/08/20 03:03:45;;;;;;;;;3.33;2.00;;;;;19.34;60.10;101433.94;5036745;28;45296;-64
2022/08/20 03:06:12;;;;;;;;;4.67;4.67;;;;;19.28;60.21;101424.75;5035151;28;45469;-63
2022/08/20 03:08:39;;;;;;;;;2.00;2.00;;;;;19.32;60.14;101439.53;5036706;28;46707;-64
2022/08/20 03:11:05;;;;;;;;;3.67;2.00;;;;;19.21;60.44;101428.34;5036674;28;45313;-64
2022/08/20 03:13:30;;;;;;;;;4.00;4.00;;;;;19.14;60.64;101420.16;5036975;28;45245;-63
2022/08/20 03:15:58;;;;;;;;;4.00;2.67;;;;;19.24;60.57;101438.78;5018538;28;45258;-63
2022/08/20 03:18:27;;;;;;;;;3.33;2.67;;;;;19.17;60.97;101422.50;5016644;28;46949;-63
2022/08/20 03:20:53;;;;;;;;;5.00;4.00;;;;;19.27;60.90;101441.94;5016665;28;45415;-62
2022/08/20 03:23:20;;;;;;;;;3.00;1.00;;;;;19.19;60.98;101433.09;5016868;28;45392;-62
2022/08/20 03:25:46;;;;;;;;;5.67;4.00;;;;;19.14;61.42;101449.81;5032344;28;45486;-64
2022/08/20 03:28:12;;;;;;;;;5.33;4.33;;;;;19.15;61.49;101441.53;5016526;28;45711;-63
2022/08/20 03:30:38;;;;;;;;;2.00;2.00;;;;;19.15;61.13;101435.31;5016614;28;45290;-64
2022/08/20 03:33:04;;;;;;;;;4.00;3.67;;;;;19.13;61.34;101432.81;5017006;28;45486;-63
2022/08/20 03:35:31;;;;;;;;;3.00;2.00;;;;;19.10;61.40;101443.97;5016832;28;45438;-63
2022/08/20 03:37:56;;;;;;;;;4.67;2.67;;;;;18.65;61.29;101358.66;5016390;28;47466;-63
2022/08/20 03:40:28;;;;;;;;;5.00;5.00;;;;;19.12;61.45;101441.06;5016723;28;45368;-63
2022/08/20 03:42:54;;;;;;;;;2.33;2.33;;;;;19.10;61.46;101438.56;5026323;28;45164;-63
2022/08/20 03:45:21;;;;;;;;;3.33;3.33;;;;;19.11;61.80;101444.78;5036855;28;45250;-63
2022/08/20 03:47:48;;;;;;;;;4.00;2.33;;;;;19.11;61.43;101442.94;5036262;28;47874;-62
2022/08/20 03:50:14;;;;;;;;;3.00;2.33;;;;;19.01;61.44;101433.41;5035949;28;45475;-62
2022/08/20 03:52:39;;;;;;;;;2.00;2.00;;;;;18.86;61.48;101425.31;5036617;28;46309;-63
2022/08/20 03:55:06;;;;;;;;;3.67;2.67;;;;;18.46;61.45;101351.88;5035421;28;45526;-62
2022/08/20 03:57:32;;;;;;;;;2.67;2.67;;;;;19.00;61.63;101448.75;5034534;28;47487;-62
2022/08/20 03:59:57;;;;;;;;;5.00;3.33;;;;;19.01;61.49;101455.81;5035907;28;45489;-62
2022/08/20 04:02:24;;;;;;;;;5.00;3.00;;;;;18.79;61.76;101418.97;5036219;28;45534;-62
2022/08/20 04:04:49;;;;;;;;;1.33;1.33;;;;;19.00;61.61;101448.75;5036540;28;45383;-62
2022/08/20 04:07:24;;;;;;;;;8.00;4.00;;;;;18.91;61.30;101433.69;5034632;28;46544;-62
2022/08/20 04:09:58;;;;;;;;;3.00;2.00;;;;;18.87;61.39;101437.78;5034086;28;45407;-62
2022/08/20 04:12:24;;;;;;;;;4.33;3.00;;;;;18.98;61.37;101456.19;5016266;28;45348;-63
2022/08/20 04:14:51;;;;;;;;;4.00;2.67;;;;;18.82;61.36;101430.25;5016021;28;45349;-63
2022/08/20 04:17:18;;;;;;;;;3.67;3.67;;;;;19.00;61.25;101461.38;5018262;28;46714;-62
2022/08/20 04:19:44;;;;;;;;;6.33;4.33;;;;;18.96;61.36;101452.84;5019442;28;45683;-63
2022/08/20 04:22:12;;;;;;;;;7.00;4.33;;;;;18.40;61.32;101365.22;5019623;28;45339;-63
2022/08/20 04:24:38;;;;;;;;;3.00;2.00;;;;;18.81;61.51;101433.91;5019883;28;45507;-62
2022/08/20 04:27:04;;;;;;;;;3.67;3.67;;;;;18.96;61.45;101447.44;5019307;28;46425;-63
2022/08/20 04:29:30;;;;;;;;;9.00;6.67;;;;;18.50;61.91;101376.59;5018980;28;45363;-62
2022/08/20 04:31:55;;;;;;;;;5.00;3.00;;;;;18.92;61.81;101448.84;5019421;28;45328;-64
2022/08/20 04:34:21;;;;;;;;;4.67;3.00;;;;;18.36;61.82;101359.34;5019709;28;45371;-63
2022/08/20 04:36:47;;;;;;;;;4.67;2.67;;;;;18.92;61.53;101456.06;5018374;28;63153;-62
2022/08/20 04:39:16;;;;;;;;;4.67;4.67;;;;;18.84;61.67;101443.53;5032787;28;45434;-63
2022/08/20 04:41:42;;;;;;;;;2.67;2.00;;;;;18.88;61.74;101463.69;5039190;28;45442;-63
2022/08/20 04:44:09;;;;;;;;;2.00;2.00;;;;;18.81;61.13;101460.84;5039319;28;45408;-63
2022/08/20 04:46:35;;;;;;;;;5.00;4.00;;;;;18.85;61.55;101458.66;5039016;28;46593;-62
2022/08/20 04:49:02;;;;;;;;;2.00;2.00;;;;;18.40;61.86;101381.38;5038412;28;45380;-63
2022/08/20 04:51:27;;;;;;;;;3.00;2.67;;;;;18.85;61.31;101455.97;5039124;28;45344;-64
2022/08/20 04:53:53;;;;;;;;;4.33;3.33;;;;;18.78;61.83;101444.22;5039156;28;45363;-63
2022/08/20 04:56:24;;;;;;;;;3.00;2.33;;;;;18.84;61.82;101448.91;5038617;28;45480;-63
2022/08/20 04:58:51;;;;;;;;;3.00;3.00;;;;;18.85;61.17;101455.97;5038902;28;45482;-64
2022/08/20 05:01:17;;;;;;;;;5.00;4.00;;;;;18.67;61.16;101428.50;5038735;28;45347;-63
2022/08/20 05:03:42;;;;;;;;;4.33;3.33;;;;;18.89;61.42;101472.63;5038679;28;45390;-63
2022/08/20 05:06:10;;;;;;;;;5.00;5.00;;;;;18.89;61.48;101473.44;5037894;28;46365;-62
2022/08/20 05:08:37;;;;;;;;;3.00;3.00;;;;;18.90;61.36;101485.91;5038597;28;45305;-63
2022/08/20 05:11:03;;;;;;;;;2.33;2.33;;;;;18.92;61.20;101478.47;5037162;28;45388;-64
2022/08/20 05:13:29;;;;;;;;;3.00;3.00;;;;;18.90;60.69;101480.50;5038858;28;45225;-64
2022/08/20 05:15:55;;;;;;;;;5.00;2.00;;;;;18.91;60.82;101492.97;5038322;28;46736;-63
2022/08/20 05:18:24;;;;;;;;;4.33;4.00;;;;;18.91;60.99;101498.34;5038454;28;45339;-62
2022/08/20 05:20:49;;;;;;;;;2.33;2.33;;;;;18.93;60.62;101479.31;5038457;28;45517;-64
2022/08/20 05:23:18;;;;;;;;;6.33;4.00;;;;;18.95;60.40;101488.88;5038679;28;45293;-64
2022/08/20 05:25:46;;;;;;;;;6.67;4.33;;;;;18.85;60.79;101464.06;5038258;28;47447;-64
2022/08/20 05:28:24;;;;;;;;;6.33;3.67;;;;;18.98;61.15;101487.69;5037493;28;45358;-62
2022/08/20 05:30:51;;;;;;;;;5.00;4.00;;;;;18.98;60.61;101488.53;5038306;28;45245;-63
2022/08/20 05:33:18;;;;;;;;;3.33;2.33;;;;;18.99;60.68;101484.81;5038464;28;45422;-62
2022/08/20 05:35:46;;;;;;;;;5.67;4.33;;;;;18.98;60.31;101488.53;5019005;28;45658;-62
2022/08/20 05:38:14;;;;;;;;;2.33;2.33;;;;;18.97;60.42;101488.69;5017986;28;45246;-63
2022/08/20 05:40:41;;;;;;;;;4.00;2.67;;;;;19.00;60.50;101486.47;5018153;28;45534;-63
2022/08/20 05:43:07;;;;;;;;;8.00;6.67;;;;;19.02;60.35;101489.84;5018116;28;45214;-62
2022/08/20 05:45:36;;;;;;;;;6.33;5.00;;;;;18.41;60.47;101378.50;5017805;28;46545;-62
2022/08/20 05:48:07;;;;;;;;;2.67;2.33;;;;;19.06;60.25;101491.16;5017943;28;45412;-62
2022/08/20 05:50:33;;;;;;;;;4.67;3.67;;;;;18.50;60.20;101404.34;5017995;28;45126;-63
2022/08/20 05:53:00;;;;;;;;;2.67;2.67;;;;;18.89;60.22;101462.69;5018371;28;45330;-62
2022/08/20 05:55:27;;;;;;;;;3.00;3.00;;;;;19.06;60.00;101490.34;5016752;28;47566;-63
2022/08/20 05:57:57;;;;;;;;;3.33;3.33;;;;;19.19;60.29;101504.00;5017630;28;45394;-62
2022/08/20 06:00:22;;;;;;;;;4.00;2.00;;;;;19.20;60.06;101502.16;5018023;28;45207;-65
2022/08/20 06:05:31;;;;;;;;;4.67;3.00;;;;;19.20;59.91;101512.94;5037811;28;45327;-63
2022/08/20 06:07:56;;;;;;;;;2.67;2.67;;;;;19.26;59.86;101518.47;5037365;28;55352;-66
2022/08/20 06:10:22;;;;;;;;;4.00;3.00;;;;;18.99;60.00;101457.03;5036382;28;45411;-62
2022/08/20 06:12:47;;;;;;;;;3.00;3.00;;;;;18.48;59.20;101366.00;5037806;28;45528;-63
2022/08/20 06:15:13;;;;;;;;;4.67;3.33;;;;;19.35;59.14;101508.44;5052927;28;47307;-64
2022/08/20 06:17:39;;;;;;;;;3.00;2.00;;;;;19.35;59.15;101506.56;5036310;28;45392;-64
2022/08/20 06:20:07;;;;;;;;;4.00;3.00;;;;;19.40;59.18;101516.78;5037494;28;45269;-63
2022/08/20 06:22:33;;;;;;;;;4.67;3.00;;;;;19.49;59.11;101522.97;5037648;28;45469;-63
2022/08/20 06:24:58;;;;;;;;;3.67;1.33;;;;;19.55;58.67;101524.94;5037291;28;45672;-64
2022/08/20 06:27:24;;;;;;;;;6.00;3.00;;;;;19.42;58.73;101483.25;5037382;28;45315;-64
2022/08/20 06:29:50;;;;;;;;;6.00;4.00;;;;;19.72;58.53;101518.38;5033289;28;45431;-63
2022/08/20 06:32:16;;;;;;;;;4.67;4.33;;;;;19.78;58.33;101504.13;5017722;28;45249;-63
2022/08/20 06:34:42;;;;;;;;;4.00;4.00;;;;;19.88;58.07;101517.38;5017165;28;47060;-64
2022/08/20 06:37:25;;;;;;;;;5.67;4.33;;;;;20.09;57.82;101517.44;5017160;28;45426;-63
2022/08/20 06:39:52;;;;;;;;;4.00;4.00;;;;;20.59;56.36;101511.22;5016386;28;45443;-63
2022/08/20 06:42:19;;;;;;;;;5.67;5.00;;;;;21.08;54.47;101456.41;5017517;28;45539;-63
2022/08/20 06:44:48;;;;;;;;;2.67;2.67;;;;;22.16;52.50;101504.59;5016977;28;46838;-64
2022/08/20 06:47:16;;;;;;;;;4.67;2.00;;;;;23.06;50.75;101502.56;5015931;28;45342;-66
2022/08/20 06:49:42;;;;;;;;;2.00;2.00;;;;;23.89;48.50;101495.63;5016864;28;45558;-65
2022/08/20 06:52:07;;;;;;;;;3.00;3.00;;;;;24.59;46.84;101514.78;5017249;28;45368;-63
2022/08/20 06:54:33;;;;;;;;;2.67;2.67;;;;;25.28;45.51;101518.53;5016867;28;45598;-64
2022/08/20 06:56:59;;;;;;;;;9.00;7.00;;;;;25.90;44.23;101522.13;5016980;28;45330;-65
2022/08/20 06:59:24;;;;;;;;;4.00;3.00;;;;;26.45;42.87;101509.34;5048474;28;45290;-64
2022/08/20 07:01:50;;;;;;;;;6.00;4.67;;;;;27.03;41.70;101507.84;5036841;28;45156;-65
2022/08/20 07:04:15;;;;;;;;;3.00;3.00;;;;;27.55;40.61;101504.22;5035284;28;46969;-64
2022/08/20 07:06:42;;;;;;;;;2.33;2.00;;;;;28.09;39.29;101484.94;5036721;28;45291;-64
2022/08/20 07:09:08;;;;;;;;;4.00;2.67;;;;;28.71;38.22;101494.09;5036906;28;45366;-64
2022/08/20 07:11:34;;;;;;;;;2.67;2.00;;;;;29.16;36.73;101496.00;5036963;28;45364;-64
2022/08/20 07:14:00;;;;;;;;;2.33;2.33;;;;;29.80;35.85;101512.03;5036169;28;46505;-64
2022/08/20 07:16:26;;;;;;;;;2.67;2.00;;;;;30.38;34.83;101503.19;5036135;28;45221;-63
2022/08/20 07:18:51;;;;;;;;;4.33;4.00;;;;;30.85;33.64;101480.66;5036597;28;45264;-64
2022/08/20 07:21:16;;;;;;;;;2.67;2.67;;;;;31.54;32.90;101504.53;5036813;28;45465;-64
2022/08/20 07:23:42;;;;;;;;;8.33;7.33;;;;;31.64;32.10;101409.22;5036680;28;46124;-63
2022/08/20 07:26:07;;;;;;;;;5.33;2.67;;;;;32.74;31.02;101490.72;5029301;28;45202;-63
2022/08/20 07:28:33;;;;;;;;;2.67;2.00;;;;;33.20;30.32;101500.66;5016857;28;45250;-64
2022/08/20 07:33:43;;;;;;;;;5.00;4.00;;;;;34.18;28.93;101511.22;5016509;28;45886;-64
2022/08/20 07:36:10;;;;;;;;;2.33;2.00;;;;;34.67;28.19;101512.34;5016436;28;45324;-64
2022/08/20 07:38:36;;;;;;;;;6.00;5.00;;;;;35.03;27.44;101504.63;5015178;28;45467;-64
2022/08/20 07:41:06;;;;;;;;;4.33;3.33;;;;;35.42;27.33;101517.56;5015104;28;45538;-64
2022/08/20 07:43:32;;;;;;;;;2.00;2.00;;;;;35.25;26.49;101446.94;5016142;28;45652;-64
2022/08/20 07:46:00;;;;;;;;;5.00;3.67;;;;;35.85;26.19;101524.88;5016551;28;45324;-64
2022/08/20 07:48:29;;;;;;;;;3.67;3.00;;;;;36.03;25.75;101511.34;5016206;28;45516;-65
2022/08/20 07:50:56;;;;;;;;;3.33;3.00;;;;;36.22;25.68;101509.44;5015960;28;45436;-64
2022/08/20 07:53:22;;;;;;;;;6.67;5.33;;;;;36.40;25.77;101521.69;5021020;28;46663;-65
2022/08/20 07:55:47;;;;;;;;;2.00;2.00;;;;;35.86;25.39;101443.50;5039571;28;45333;-63
2022/08/20 07:58:16;;;;;;;;;4.00;3.00;;;;;35.89;25.41;101467.00;5038287;28;45283;-65
2022/08/20 08:00:41;;;;;;;;;2.33;2.33;;;;;36.49;25.37;101526.28;5039917;28;45470;-64
2022/08/20 08:03:08;;;;;;;;;3.00;3.00;;;;;36.61;24.71;101516.66;5039347;28;46727;-66
2022/08/20 08:05:42;;;;;;;;;1.67;1.67;;;;;36.88;24.63;101525.16;5055186;28;45456;-63
2022/08/20 08:08:10;;;;;;;;;4.00;1.00;;;;;37.25;23.97;101531.75;5039637;28;45237;-64
2022/08/20 08:10:37;;;;;;;;;3.00;1.67;;;;;37.36;23.66;101511.03;5039430;28;45571;-64
2022/08/20 08:13:07;;;;;;;;;3.00;2.67;;;;;37.69;23.75;101518.16;5038977;28;45806;-63
2022/08/20 08:15:39;;;;;;;;;4.00;3.00;;;;;37.94;23.29;101511.28;5039168;28;45290;-64
2022/08/20 08:18:11;;;;;;;;;4.00;2.33;;;;;38.20;23.20;101528.25;5039224;28;45142;-64
2022/08/20 08:20:40;;;;;;;;;2.00;2.00;;;;;38.03;22.42;101494.72;5039724;28;45610;-65
2022/08/20 08:23:07;;;;;;;;;6.33;2.33;;;;;38.24;22.47;101529.25;5036675;28;47642;-65
2022/08/20 08:25:33;;;;;;;;;3.33;3.00;;;;;38.23;22.69;101518.47;5038628;28;45583;-65
2022/08/20 08:27:59;;;;;;;;;2.67;2.67;;;;;38.33;22.76;101534.94;5039231;28;45620;-64
2022/08/20 08:30:25;;;;;;;;;6.67;5.00;;;;;38.08;23.14;101532.69;5039130;28;45553;-65
2022/08/20 08:35:37;;;;;;;;;1.33;0.00;;;;;37.97;23.14;101538.44;5039006;28;45317;-64
2022/08/20 08:38:03;;;;;;;;;2.00;2.00;;;;;37.86;22.46;101530.63;5037497;28;45431;-64
2022/08/20 08:40:30;;;;;;;;;1.67;1.67;;;;;38.12;22.61;101539.25;5039296;28;45201;-63
2022/08/20 08:42:59;;;;;;;;;2.00;1.00;;;;;38.28;22.76;101544.19;5037375;28;48008;-65
2022/08/20 08:45:37;;;;;;;;;4.00;2.33;;;;;38.08;22.25;101463.25;5038838;28;45363;-64
2022/08/20 08:48:03;;;;;;;;;3.00;1.33;;;;;38.86;21.38;101526.75;5027715;28;45586;-65
2022/08/20 08:50:32;;;;;;;;;1.00;1.00;;;;;38.88;21.05;101501.41;5037983;28;45436;-63
2022/08/20 08:53:01;;;;;;;;;3.67;2.33;;;;;39.09;20.77;101526.78;5038584;28;46568;-64
2022/08/20 08:55:28;;;;;;;;;1.00;1.00;;;;;38.80;21.43;101519.66;5038690;28;45398;-63
2022/08/20 08:58:00;;;;;;;;;2.00;2.00;;;;;38.53;21.26;101528.91;5038668;28;45178;-65
2022/08/20 09:00:27;;;;;;;;;6.00;3.00;;;;;38.58;21.48;101530.72;5037664;28;45743;-64
2022/08/20 09:03:07;;;;;;;;;3.00;2.00;;;;;38.07;21.71;101514.38;5037443;28;46196;-64
2022/08/20 09:05:51;;;;;;;;;3.00;2.00;;;;;38.08;21.76;101527.94;5031535;28;45286;-64
2022/08/20 09:08:23;;;;;;;;;2.67;2.67;;;;;38.26;21.89;101529.81;5018586;28;45297;-64
2022/08/20 09:10:49;;;;;;;;;4.00;2.33;;;;;38.49;21.49;101527.06;5018832;28;45510;-64
2022/08/20 09:13:15;;;;;;;;;4.33;4.00;;;;;38.61;21.54;101530.09;5018393;28;46834;-65
2022/08/20 09:15:40;;;;;;;;;3.00;3.00;;;;;38.96;20.97;101511.75;5038384;28;45271;-64
2022/08/20 09:18:05;;;;;;;;;1.67;1.67;;;;;39.23;20.56;101508.03;5031854;28;45500;-64
2022/08/20 09:20:31;;;;;;;;;2.67;2.67;;;;;38.76;20.89;101507.53;5018518;28;45286;-65
2022/08/20 09:22:56;;;;;;;;;4.00;2.33;;;;;38.26;21.29;101517.88;5018295;28;46592;-65
2022/08/20 09:25:22;;;;;;;;;3.33;3.33;;;;;38.52;20.84;101526.44;5018465;28;45436;-65
2022/08/20 09:27:47;;;;;;;;;4.67;2.33;;;;;38.73;20.92;101527.63;5018466;28;45255;-64
2022/08/20 09:30:14;;;;;;;;;2.00;0.67;;;;;39.19;20.44;101523.72;5018236;28;45349;-65
2022/08/20 09:32:40;;;;;;;;;7.67;4.00;;;;;40.00;19.43;101521.50;5028043;28;45815;-64
2022/08/20 09:35:05;;;;;;;;;4.00;3.00;;;;;41.17;18.41;101514.97;5034814;28;45519;-65
2022/08/20 09:37:31;;;;;;;;;9.00;7.33;;;;;42.23;16.75;101503.84;5036805;28;45553;-64
2022/08/20 09:39:58;;;;;;;;;7.00;5.33;;;;;41.63;17.69;101496.59;5038364;28;45395;-66
2022/08/20 09:42:27;;;;;;;;;2.00;1.33;;;;;41.74;17.52;101517.44;5019943;28;47059;-65
2022/08/20 09:44:53;;;;;;;;;4.67;3.00;;;;;41.84;17.55;101510.66;5018507;28;45305;-65
2022/08/20 09:47:19;;;;;;;;;1.67;1.67;;;;;40.70;18.38;101523.25;5035896;28;45339;-65
2022/08/20 09:49:45;;;;;;;;;4.67;2.33;;;;;40.19;18.48;101448.78;5037935;28;45299;-64
2022/08/20 09:52:21;;;;;;;;;2.00;2.00;;;;;40.93;17.66;101479.28;5037390;28;45974;-71
2022/08/20 09:54:49;;;;;;;;;3.67;3.33;;;;;41.62;17.27;101511.72;5036563;28;45303;-64
2022/08/20 09:57:15;;;;;;;;;2.33;2.33;;;;;41.56;17.57;101511.09;5037742;28;45327;-64
2022/08/20 09:59:41;;;;;;;;;1.00;1.00;;;;;41.91;16.37;101506.19;5036552;28;45308;-64
2022/08/20 10:02:06;;;;;;;;;6.00;3.33;;;;;42.47;16.03;101511.56;5037187;28;46938;-64
2022/08/20 10:04:32;;;;;;;;;2.67;1.67;;;;;42.19;16.92;101506.50;5036426;28;45257;-64
2022/08/20 10:06:57;;;;;;;;;2.33;0.33;;;;;41.84;16.55;101496.69;5037515;28;45317;-64
2022/08/20 10:09:22;;;;;;;;;2.67;1.00;;;;;40.98;17.69;101486.63;5037482;28;45387;-64
2022/08/20 10:11:48;;;;;;;;;2.00;2.00;;;;;39.90;18.58;101499.50;5036816;28;46582;-63
2022/08/20 10:14:13;;;;;;;;;4.33;4.00;;;;;38.74;19.31;101503.44;5036730;28;45451;-65
2022/08/20 10:16:39;;;;;;;;;3.00;3.00;;;;;37.74;20.27;101504.22;5024472;28;45503;-63
2022/08/20 10:19:04;;;;;;;;;2.00;2.00;;;;;36.80;21.31;101504.47;5017502;28;45375;-64
2022/08/20 10:21:31;;;;;;;;;1.00;1.00;;;;;36.03;21.85;101495.56;5048999;28;47925;-69
2022/08/20 10:23:57;;;;;;;;;1.00;1.00;;;;;35.41;22.97;101474.44;5024950;28;45344;-65
2022/08/20 10:26:22;;;;;;;;;9.67;4.67;;;;;35.24;22.87;101492.28;5035282;28;45394;-65
2022/08/20 10:28:47;;;;;;;;;3.00;3.00;;;;;34.81;23.04;101477.41;5037493;28;45274;-65
2022/08/20 10:31:13;;;;;;;;;2.67;2.33;;;;;34.30;24.14;101485.22;5037143;28;46460;-63
2022/08/20 10:33:39;;;;;;;;;4.33;4.33;;;;;33.91;24.69;101497.00;5037530;28;45474;-65
2022/08/20 10:36:16;;;;;;;;;3.00;1.00;;;;;33.10;24.66;101428.22;5036631;28;45194;-82
2022/08/20 10:38:42;;;;;;;;;5.67;2.33;;;;;32.40;24.98;101391.31;5028596;28;45490;-68
2022/08/20 10:41:08;;;;;;;;;2.33;2.33;;;;;32.65;25.08;101476.69;5018940;28;46590;-67
2022/08/20 10:43:34;;;;;;;;;4.00;4.00;;;;;32.21;26.09;101485.34;5030806;28;45467;-81
2022/08/20 10:45:59;;;;;;;;;5.00;4.00;;;;;31.93;26.50;101477.56;5034407;28;45747;-63
2022/08/20 10:48:25;;;;;;;;;3.00;2.00;;;;;31.60;26.76;101487.81;5016079;28;47145;-62
2022/08/20 10:50:50;;;;;;;;;25.00;22.00;;;;;31.20;27.05;101471.06;5022342;28;45670;-64
2022/08/20 10:53:16;;;;;;;;;2.00;2.00;;;;;30.77;27.38;101479.19;5018472;28;45326;-63
2022/08/20 10:55:42;;;;;;;;;5.00;1.33;;;;;30.42;28.04;101487.88;5038426;28;45346;-65
2022/08/20 10:58:08;;;;;;;;;3.33;3.00;;;;;29.89;28.86;101475.72;5016309;28;45333;-64
2022/08/20 11:00:35;;;;;;;;;4.00;4.00;;;;;29.75;29.37;101476.34;5014419;28;47621;-63
2022/08/20 11:03:00;;;;;;;;;3.00;2.00;;;;;29.70;29.74;101485.31;5014580;28;45513;-63
2022/08/20 11:05:26;;;;;;;;;3.33;3.33;;;;;29.52;29.53;101482.88;5016360;28;45356;-63
2022/08/20 11:07:51;;;;;;;;;1.00;1.00;;;;;29.31;29.74;101474.31;5016438;28;45379;-63
2022/08/20 11:10:17;;;;;;;;;3.33;2.00;;;;;29.00;30.13;101491.34;5015686;28;58967;-63
2022/08/20 11:12:42;;;;;;;;;1.33;1.33;;;;;28.77;30.81;101492.28;5017024;28;45348;-63
2022/08/20 11:15:09;;;;;;;;;2.00;2.00;;;;;28.68;31.02;101494.59;5016974;28;45319;-64
2022/08/20 11:17:36;;;;;;;;;4.67;4.67;;;;;28.50;31.51;101463.88;5016893;28;45372;-65
2022/08/20 11:20:04;;;;;;;;;5.33;2.00;;;;;28.47;30.95;101489.84;5014998;28;45723;-64
2022/08/20 11:22:29;;;;;;;;;3.33;1.00;;;;;28.18;31.89;101492.50;5014346;28;45416;-64
2022/08/20 11:24:54;;;;;;;;;4.00;3.00;;;;;27.62;31.83;101391.28;5018586;28;45541;-63
2022/08/20 11:27:25;;;;;;;;;4.00;4.00;;;;;28.06;31.05;101480.78;5033997;28;45418;-65
2022/08/20 11:29:50;;;;;;;;;3.33;3.33;;;;;27.91;32.12;101483.19;5022173;28;46644;-64
2022/08/20 11:32:16;;;;;;;;;4.00;3.00;;;;;27.85;32.12;101492.38;5035302;28;45493;-64
2022/08/20 11:34:42;;;;;;;;;3.67;2.67;;;;;27.71;31.68;101469.94;5032515;28;45178;-64
2022/08/20 11:37:07;;;;;;;;;4.00;4.00;;;;;27.24;31.83;101406.31;5020159;28;45318;-69